sensor_id;sensor_type;location;lat;lon;timestamp;P1;durP1;ratioP1;P2;durP2;ratioP2
11911;SDS011;6016;41.928;25.556;2023-06-26T00:00:45;7.53;;;4.10;;
11911;SDS011;6016;41.928;25.556;2023-06-26T00:03:13;8.02;;;4.20;;
11911;SDS011;6016;41.928;25.556;2023-06-26T00:05:40;9.65;;;3.95;;
11911;SDS011;6016;41.928;25.556;2023-06-26T00:08:07;10.27;;;4.43;;
11911;SDS011;6016;41.928;25.556;2023-06-26T00:10:34;6.57;;;3.72;;
11911;SDS011;6016;41.928;25.556;2023-06-26T00:13:02;10.30;;;3.92;;
11911;SDS011;6016;41.928;25.556;2023-06-26T00:15:29;7.13;;;3.78;;
11911;SDS011;6016;41.928;25.556;2023-06-26T00:17:56;6.68;;;3.65;;
11911;SDS011;6016;41.928;25.556;2023-06-26T00:20:23;7.15;;;3.70;;
11911;SDS011;6016;41.928;25.556;2023-06-26T00:22:51;8.30;;;3.65;;
11911;SDS011;6016;41.928;25.556;2023-06-26T00:25:19;7.65;;;3.92;;
11911;SDS011;6016;41.928;25.556;2023-06-26T00:27:46;7.57;;;4.10;;
11911;SDS011;6016;41.928;25.556;2023-06-26T00:30:14;7.60;;;3.70;;
11911;SDS011;6016;41.928;25.556;2023-06-26T00:32:41;7.85;;;3.55;;
11911;SDS011;6016;41.928;25.556;2023-06-26T00:35:07;8.80;;;3.70;;
11911;SDS011;6016;41.928;25.556;2023-06-26T00:37:34;10.00;;;3.72;;
11911;SDS011;6016;41.928;25.556;2023-06-26T00:40:01;6.68;;;3.80;;
11911;SDS011;6016;41.928;25.556;2023-06-26T00:42:30;9.57;;;4.07;;
11911;SDS011;6016;41.928;25.556;2023-06-26T00:44:57;6.70;;;3.90;;
11911;SDS011;6016;41.928;25.556;2023-06-26T00:47:25;9.20;;;4.32;;
11911;SDS011;6016;41.928;25.556;2023-06-26T00:49:53;6.63;;;3.88;;
11911;SDS011;6016;41.928;25.556;2023-06-26T00:52:22;5.63;;;3.72;;
11911;SDS011;6016;41.928;25.556;2023-06-26T00:54:49;6.75;;;3.85;;
11911;SDS011;6016;41.928;25.556;2023-06-26T00:57:16;9.45;;;4.18;;
11911;SDS011;6016;41.928;25.556;2023-06-26T00:59:43;6.68;;;4.03;;
11911;SDS011;6016;41.928;25.556;2023-06-26T01:02:10;9.50;;;4.88;;
11911;SDS011;6016;41.928;25.556;2023-06-26T01:04:38;10.35;;;4.95;;
11911;SDS011;6016;41.928;25.556;2023-06-26T01:07:11;10.77;;;5.07;;
11911;SDS011;6016;41.928;25.556;2023-06-26T01:09:39;10.90;;;5.07;;
11911;SDS011;6016;41.928;25.556;2023-06-26T01:12:07;10.45;;;4.80;;
11911;SDS011;6016;41.928;25.556;2023-06-26T01:14:34;10.02;;;4.47;;
11911;SDS011;6016;41.928;25.556;2023-06-26T01:17:02;9.55;;;4.22;;
11911;SDS011;6016;41.928;25.556;2023-06-26T01:19:30;9.60;;;4.10;;
11911;SDS011;6016;41.928;25.556;2023-06-26T01:22:02;9.55;;;4.20;;
11911;SDS011;6016;41.928;25.556;2023-06-26T01:24:48;9.50;;;4.22;;
11911;SDS011;6016;41.928;25.556;2023-06-26T01:27:29;7.53;;;4.28;;
11911;SDS011;6016;41.928;25.556;2023-06-26T01:29:58;7.68;;;3.90;;
11911;SDS011;6016;41.928;25.556;2023-06-26T01:32:29;6.35;;;3.60;;
11911;SDS011;6016;41.928;25.556;2023-06-26T01:34:57;6.47;;;3.42;;
11911;SDS011;6016;41.928;25.556;2023-06-26T01:37:25;6.15;;;3.90;;
11911;SDS011;6016;41.928;25.556;2023-06-26T01:39:52;7.28;;;3.38;;
11911;SDS011;6016;41.928;25.556;2023-06-26T01:42:19;7.47;;;3.40;;
11911;SDS011;6016;41.928;25.556;2023-06-26T01:44:47;7.13;;;3.63;;
11911;SDS011;6016;41.928;25.556;2023-06-26T01:47:19;7.43;;;3.27;;
11911;SDS011;6016;41.928;25.556;2023-06-26T01:49:52;7.22;;;3.47;;
11911;SDS011;6016;41.928;25.556;2023-06-26T01:52:27;5.60;;;3.20;;
11911;SDS011;6016;41.928;25.556;2023-06-26T01:55:02;6.95;;;3.45;;
11911;SDS011;6016;41.928;25.556;2023-06-26T01:57:35;6.53;;;3.17;;
11911;SDS011;6016;41.928;25.556;2023-06-26T02:00:05;6.60;;;3.30;;
11911;SDS011;6016;41.928;25.556;2023-06-26T02:02:35;7.57;;;2.97;;
11911;SDS011;6016;41.928;25.556;2023-06-26T02:05:02;6.32;;;2.97;;
11911;SDS011;6016;41.928;25.556;2023-06-26T02:07:29;6.43;;;2.83;;
11911;SDS011;6016;41.928;25.556;2023-06-26T02:09:56;7.80;;;3.10;;
11911;SDS011;6016;41.928;25.556;2023-06-26T02:12:23;5.65;;;3.22;;
11911;SDS011;6016;41.928;25.556;2023-06-26T02:14:49;7.15;;;3.20;;
11911;SDS011;6016;41.928;25.556;2023-06-26T02:17:17;5.18;;;3.25;;
11911;SDS011;6016;41.928;25.556;2023-06-26T02:19:44;5.03;;;2.60;;
11911;SDS011;6016;41.928;25.556;2023-06-26T02:22:12;5.20;;;2.63;;
11911;SDS011;6016;41.928;25.556;2023-06-26T02:24:39;7.18;;;3.28;;
11911;SDS011;6016;41.928;25.556;2023-06-26T02:27:06;7.78;;;2.92;;
11911;SDS011;6016;41.928;25.556;2023-06-26T02:29:34;7.13;;;3.42;;
11911;SDS011;6016;41.928;25.556;2023-06-26T02:32:00;9.65;;;3.35;;
11911;SDS011;6016;41.928;25.556;2023-06-26T02:34:29;5.35;;;3.30;;
11911;SDS011;6016;41.928;25.556;2023-06-26T02:36:55;10.60;;;4.68;;
11911;SDS011;6016;41.928;25.556;2023-06-26T02:39:24;6.60;;;3.38;;
11911;SDS011;6016;41.928;25.556;2023-06-26T02:41:51;6.63;;;3.40;;
11911;SDS011;6016;41.928;25.556;2023-06-26T02:44:18;6.35;;;3.15;;
11911;SDS011;6016;41.928;25.556;2023-06-26T02:46:46;6.57;;;3.60;;
11911;SDS011;6016;41.928;25.556;2023-06-26T02:49:13;7.97;;;3.70;;
11911;SDS011;6016;41.928;25.556;2023-06-26T02:51:41;4.95;;;2.78;;
11911;SDS011;6016;41.928;25.556;2023-06-26T02:54:07;10.23;;;3.90;;
11911;SDS011;6016;41.928;25.556;2023-06-26T02:56:34;8.20;;;3.75;;
11911;SDS011;6016;41.928;25.556;2023-06-26T02:59:01;10.32;;;3.40;;
11911;SDS011;6016;41.928;25.556;2023-06-26T03:01:28;7.00;;;3.60;;
11911;SDS011;6016;41.928;25.556;2023-06-26T03:03:55;9.10;;;4.20;;
11911;SDS011;6016;41.928;25.556;2023-06-26T03:06:22;10.60;;;4.55;;
11911;SDS011;6016;41.928;25.556;2023-06-26T03:08:50;7.18;;;4.07;;
11911;SDS011;6016;41.928;25.556;2023-06-26T03:11:16;10.05;;;4.50;;
11911;SDS011;6016;41.928;25.556;2023-06-26T03:13:43;8.35;;;4.35;;
11911;SDS011;6016;41.928;25.556;2023-06-26T03:16:10;7.03;;;4.45;;
11911;SDS011;6016;41.928;25.556;2023-06-26T03:18:37;10.38;;;4.60;;
11911;SDS011;6016;41.928;25.556;2023-06-26T03:21:03;8.43;;;4.68;;
11911;SDS011;6016;41.928;25.556;2023-06-26T03:23:31;10.35;;;4.88;;
11911;SDS011;6016;41.928;25.556;2023-06-26T03:25:59;10.73;;;5.28;;
11911;SDS011;6016;41.928;25.556;2023-06-26T03:28:26;12.35;;;4.75;;
11911;SDS011;6016;41.928;25.556;2023-06-26T03:30:53;9.48;;;4.60;;
11911;SDS011;6016;41.928;25.556;2023-06-26T03:33:20;8.57;;;4.80;;
11911;SDS011;6016;41.928;25.556;2023-06-26T03:35:47;10.45;;;5.32;;
11911;SDS011;6016;41.928;25.556;2023-06-26T03:38:13;9.07;;;5.32;;
11911;SDS011;6016;41.928;25.556;2023-06-26T03:40:40;14.18;;;5.22;;
11911;SDS011;6016;41.928;25.556;2023-06-26T03:43:08;13.63;;;6.35;;
11911;SDS011;6016;41.928;25.556;2023-06-26T03:45:35;12.63;;;5.95;;
11911;SDS011;6016;41.928;25.556;2023-06-26T03:48:02;11.80;;;6.57;;
11911;SDS011;6016;41.928;25.556;2023-06-26T03:50:29;14.98;;;5.88;;
11911;SDS011;6016;41.928;25.556;2023-06-26T03:52:56;11.52;;;6.15;;
11911;SDS011;6016;41.928;25.556;2023-06-26T03:55:24;8.85;;;5.78;;
11911;SDS011;6016;41.928;25.556;2023-06-26T03:57:51;9.40;;;5.88;;
11911;SDS011;6016;41.928;25.556;2023-06-26T04:00:19;16.70;;;7.13;;
11911;SDS011;6016;41.928;25.556;2023-06-26T04:02:46;43.83;;;18.83;;
11911;SDS011;6016;41.928;25.556;2023-06-26T04:05:13;16.27;;;8.27;;
11911;SDS011;6016;41.928;25.556;2023-06-26T04:07:40;14.10;;;7.18;;
11911;SDS011;6016;41.928;25.556;2023-06-26T04:10:07;14.73;;;7.00;;
11911;SDS011;6016;41.928;25.556;2023-06-26T04:12:34;12.98;;;6.57;;
11911;SDS011;6016;41.928;25.556;2023-06-26T04:15:01;12.65;;;7.10;;
11911;SDS011;6016;41.928;25.556;2023-06-26T04:17:30;12.55;;;6.85;;
11911;SDS011;6016;41.928;25.556;2023-06-26T04:19:57;16.52;;;7.13;;
11911;SDS011;6016;41.928;25.556;2023-06-26T04:22:23;13.35;;;7.03;;
11911;SDS011;6016;41.928;25.556;2023-06-26T04:24:50;14.00;;;7.57;;
11911;SDS011;6016;41.928;25.556;2023-06-26T04:27:17;15.65;;;7.80;;
11911;SDS011;6016;41.928;25.556;2023-06-26T04:29:44;15.93;;;7.65;;
11911;SDS011;6016;41.928;25.556;2023-06-26T04:32:11;17.35;;;7.60;;
11911;SDS011;6016;41.928;25.556;2023-06-26T04:34:39;16.35;;;7.35;;
11911;SDS011;6016;41.928;25.556;2023-06-26T04:37:09;14.88;;;8.18;;
11911;SDS011;6016;41.928;25.556;2023-06-26T04:39:36;12.77;;;7.70;;
11911;SDS011;6016;41.928;25.556;2023-06-26T04:42:03;18.02;;;8.63;;
11911;SDS011;6016;41.928;25.556;2023-06-26T04:44:31;15.20;;;7.93;;
11911;SDS011;6016;41.928;25.556;2023-06-26T04:46:58;15.80;;;7.88;;
11911;SDS011;6016;41.928;25.556;2023-06-26T04:49:25;15.50;;;7.93;;
11911;SDS011;6016;41.928;25.556;2023-06-26T04:51:55;16.63;;;7.32;;
11911;SDS011;6016;41.928;25.556;2023-06-26T04:54:21;16.75;;;8.10;;
11911;SDS011;6016;41.928;25.556;2023-06-26T04:56:48;15.18;;;8.23;;
11911;SDS011;6016;41.928;25.556;2023-06-26T04:59:15;20.30;;;8.25;;
11911;SDS011;6016;41.928;25.556;2023-06-26T05:01:42;16.20;;;8.52;;
11911;SDS011;6016;41.928;25.556;2023-06-26T05:04:13;13.07;;;7.43;;
11911;SDS011;6016;41.928;25.556;2023-06-26T05:06:40;17.30;;;8.10;;
11911;SDS011;6016;41.928;25.556;2023-06-26T05:09:08;17.23;;;8.45;;
11911;SDS011;6016;41.928;25.556;2023-06-26T05:11:36;16.85;;;7.82;;
11911;SDS011;6016;41.928;25.556;2023-06-26T05:14:02;12.65;;;7.72;;
11911;SDS011;6016;41.928;25.556;2023-06-26T05:16:32;13.88;;;8.20;;
11911;SDS011;6016;41.928;25.556;2023-06-26T05:18:59;14.95;;;8.30;;
11911;SDS011;6016;41.928;25.556;2023-06-26T05:21:26;16.65;;;8.32;;
11911;SDS011;6016;41.928;25.556;2023-06-26T05:23:54;16.05;;;8.00;;
11911;SDS011;6016;41.928;25.556;2023-06-26T05:26:24;17.05;;;8.13;;
11911;SDS011;6016;41.928;25.556;2023-06-26T05:28:52;13.25;;;8.10;;
11911;SDS011;6016;41.928;25.556;2023-06-26T05:31:20;16.35;;;8.10;;
11911;SDS011;6016;41.928;25.556;2023-06-26T05:33:47;15.70;;;8.82;;
11911;SDS011;6016;41.928;25.556;2023-06-26T05:36:15;14.05;;;8.45;;
11911;SDS011;6016;41.928;25.556;2023-06-26T05:38:43;17.02;;;8.38;;
11911;SDS011;6016;41.928;25.556;2023-06-26T05:41:10;17.80;;;8.95;;
11911;SDS011;6016;41.928;25.556;2023-06-26T05:43:38;16.70;;;8.43;;
11911;SDS011;6016;41.928;25.556;2023-06-26T05:46:05;19.80;;;8.32;;
11911;SDS011;6016;41.928;25.556;2023-06-26T05:48:32;14.75;;;8.30;;
11911;SDS011;6016;41.928;25.556;2023-06-26T05:50:59;17.88;;;8.65;;
11911;SDS011;6016;41.928;25.556;2023-06-26T05:53:26;16.27;;;8.05;;
11911;SDS011;6016;41.928;25.556;2023-06-26T05:55:55;16.20;;;8.85;;
11911;SDS011;6016;41.928;25.556;2023-06-26T05:58:23;13.93;;;8.25;;
11911;SDS011;6016;41.928;25.556;2023-06-26T06:00:53;15.77;;;8.50;;
11911;SDS011;6016;41.928;25.556;2023-06-26T06:03:20;14.30;;;8.55;;
11911;SDS011;6016;41.928;25.556;2023-06-26T06:05:47;15.50;;;8.93;;
11911;SDS011;6016;41.928;25.556;2023-06-26T06:08:13;13.75;;;8.73;;
11911;SDS011;6016;41.928;25.556;2023-06-26T06:10:40;18.77;;;9.25;;
11911;SDS011;6016;41.928;25.556;2023-06-26T06:13:07;16.23;;;8.57;;
11911;SDS011;6016;41.928;25.556;2023-06-26T06:15:34;14.70;;;8.70;;
11911;SDS011;6016;41.928;25.556;2023-06-26T06:18:02;16.42;;;8.10;;
11911;SDS011;6016;41.928;25.556;2023-06-26T06:20:30;17.23;;;8.55;;
11911;SDS011;6016;41.928;25.556;2023-06-26T06:22:56;15.73;;;8.80;;
11911;SDS011;6016;41.928;25.556;2023-06-26T06:25:23;16.63;;;8.90;;
11911;SDS011;6016;41.928;25.556;2023-06-26T06:27:50;15.38;;;8.43;;
11911;SDS011;6016;41.928;25.556;2023-06-26T06:30:17;17.00;;;9.15;;
11911;SDS011;6016;41.928;25.556;2023-06-26T06:32:44;15.93;;;8.77;;
11911;SDS011;6016;41.928;25.556;2023-06-26T06:35:16;16.35;;;9.30;;
11911;SDS011;6016;41.928;25.556;2023-06-26T06:37:43;17.40;;;8.85;;
11911;SDS011;6016;41.928;25.556;2023-06-26T06:40:10;15.02;;;8.93;;
11911;SDS011;6016;41.928;25.556;2023-06-26T06:42:38;15.73;;;8.90;;
11911;SDS011;6016;41.928;25.556;2023-06-26T06:45:05;16.02;;;8.90;;
11911;SDS011;6016;41.928;25.556;2023-06-26T06:47:32;19.40;;;8.32;;
11911;SDS011;6016;41.928;25.556;2023-06-26T06:50:00;16.73;;;8.88;;
11911;SDS011;6016;41.928;25.556;2023-06-26T06:52:34;19.73;;;9.15;;
11911;SDS011;6016;41.928;25.556;2023-06-26T06:55:02;15.82;;;8.77;;
11911;SDS011;6016;41.928;25.556;2023-06-26T06:57:31;16.33;;;8.32;;
11911;SDS011;6016;41.928;25.556;2023-06-26T07:00:01;15.20;;;8.02;;
11911;SDS011;6016;41.928;25.556;2023-06-26T07:02:29;13.68;;;8.02;;
11911;SDS011;6016;41.928;25.556;2023-06-26T07:04:56;14.57;;;7.80;;
11911;SDS011;6016;41.928;25.556;2023-06-26T07:07:23;15.38;;;7.45;;
11911;SDS011;6016;41.928;25.556;2023-06-26T07:09:51;14.43;;;7.57;;
11911;SDS011;6016;41.928;25.556;2023-06-26T07:12:18;12.80;;;7.13;;
11911;SDS011;6016;41.928;25.556;2023-06-26T07:14:44;14.90;;;6.82;;
11911;SDS011;6016;41.928;25.556;2023-06-26T07:17:11;12.40;;;6.75;;
11911;SDS011;6016;41.928;25.556;2023-06-26T07:19:38;10.52;;;6.57;;
11911;SDS011;6016;41.928;25.556;2023-06-26T07:22:05;11.45;;;6.35;;
11911;SDS011;6016;41.928;25.556;2023-06-26T07:24:31;10.00;;;5.70;;
11911;SDS011;6016;41.928;25.556;2023-06-26T07:27:00;12.90;;;6.35;;
11911;SDS011;6016;41.928;25.556;2023-06-26T07:29:27;9.90;;;4.85;;
11911;SDS011;6016;41.928;25.556;2023-06-26T07:31:54;8.18;;;4.72;;
11911;SDS011;6016;41.928;25.556;2023-06-26T07:34:21;8.80;;;4.65;;
11911;SDS011;6016;41.928;25.556;2023-06-26T07:36:47;9.55;;;5.25;;
11911;SDS011;6016;41.928;25.556;2023-06-26T07:39:14;14.80;;;7.55;;
11911;SDS011;6016;41.928;25.556;2023-06-26T07:41:41;13.57;;;7.47;;
11911;SDS011;6016;41.928;25.556;2023-06-26T07:44:09;8.98;;;6.07;;
11911;SDS011;6016;41.928;25.556;2023-06-26T07:46:36;7.32;;;4.07;;
11911;SDS011;6016;41.928;25.556;2023-06-26T07:49:02;7.65;;;3.65;;
11911;SDS011;6016;41.928;25.556;2023-06-26T07:51:29;6.97;;;4.10;;
11911;SDS011;6016;41.928;25.556;2023-06-26T07:53:56;7.68;;;3.70;;
11911;SDS011;6016;41.928;25.556;2023-06-26T07:56:23;6.00;;;3.63;;
11911;SDS011;6016;41.928;25.556;2023-06-26T07:58:50;12.93;;;3.67;;
11911;SDS011;6016;41.928;25.556;2023-06-26T08:01:19;7.35;;;3.28;;
11911;SDS011;6016;41.928;25.556;2023-06-26T08:03:45;13.55;;;4.00;;
11911;SDS011;6016;41.928;25.556;2023-06-26T08:06:12;12.68;;;3.85;;
11911;SDS011;6016;41.928;25.556;2023-06-26T08:08:39;8.30;;;3.50;;
11911;SDS011;6016;41.928;25.556;2023-06-26T08:11:06;9.27;;;3.80;;
11911;SDS011;6016;41.928;25.556;2023-06-26T08:13:33;6.50;;;3.40;;
11911;SDS011;6016;41.928;25.556;2023-06-26T08:16:00;5.95;;;3.10;;
11911;SDS011;6016;41.928;25.556;2023-06-26T08:18:28;6.80;;;2.88;;
11911;SDS011;6016;41.928;25.556;2023-06-26T08:20:55;4.63;;;2.58;;
11911;SDS011;6016;41.928;25.556;2023-06-26T08:23:21;4.20;;;2.60;;
11911;SDS011;6016;41.928;25.556;2023-06-26T08:25:49;5.05;;;2.20;;
11911;SDS011;6016;41.928;25.556;2023-06-26T08:28:16;6.32;;;2.42;;
11911;SDS011;6016;41.928;25.556;2023-06-26T08:30:43;9.63;;;2.65;;
11911;SDS011;6016;41.928;25.556;2023-06-26T08:33:09;9.55;;;3.13;;
11911;SDS011;6016;41.928;25.556;2023-06-26T08:35:38;9.50;;;2.90;;
11911;SDS011;6016;41.928;25.556;2023-06-26T08:38:05;7.60;;;3.00;;
11911;SDS011;6016;41.928;25.556;2023-06-26T08:40:34;6.30;;;2.70;;
11911;SDS011;6016;41.928;25.556;2023-06-26T08:43:01;9.07;;;2.60;;
11911;SDS011;6016;41.928;25.556;2023-06-26T08:45:29;6.25;;;2.53;;
11911;SDS011;6016;41.928;25.556;2023-06-26T08:47:56;4.07;;;2.80;;
11911;SDS011;6016;41.928;25.556;2023-06-26T08:50:30;5.13;;;2.53;;
11911;SDS011;6016;41.928;25.556;2023-06-26T08:53:02;6.10;;;3.60;;
11911;SDS011;6016;41.928;25.556;2023-06-26T08:55:33;5.43;;;2.60;;
11911;SDS011;6016;41.928;25.556;2023-06-26T08:58:04;6.25;;;2.78;;
11911;SDS011;6016;41.928;25.556;2023-06-26T09:00:31;4.72;;;2.63;;
11911;SDS011;6016;41.928;25.556;2023-06-26T09:02:58;7.63;;;2.50;;
11911;SDS011;6016;41.928;25.556;2023-06-26T09:05:26;2.88;;;2.03;;
11911;SDS011;6016;41.928;25.556;2023-06-26T09:07:53;3.70;;;2.30;;
11911;SDS011;6016;41.928;25.556;2023-06-26T09:10:22;5.78;;;3.38;;
11911;SDS011;6016;41.928;25.556;2023-06-26T09:12:49;3.95;;;2.97;;
11911;SDS011;6016;41.928;25.556;2023-06-26T09:15:19;8.65;;;3.95;;
11911;SDS011;6016;41.928;25.556;2023-06-26T09:17:47;10.57;;;3.08;;
11911;SDS011;6016;41.928;25.556;2023-06-26T09:20:14;7.30;;;2.30;;
11911;SDS011;6016;41.928;25.556;2023-06-26T09:22:42;5.38;;;2.45;;
11911;SDS011;6016;41.928;25.556;2023-06-26T09:25:09;5.47;;;2.40;;
11911;SDS011;6016;41.928;25.556;2023-06-26T09:27:37;6.75;;;2.60;;
11911;SDS011;6016;41.928;25.556;2023-06-26T09:30:05;7.22;;;2.10;;
11911;SDS011;6016;41.928;25.556;2023-06-26T09:32:33;3.85;;;2.53;;
11911;SDS011;6016;41.928;25.556;2023-06-26T09:35:01;4.60;;;2.40;;
11911;SDS011;6016;41.928;25.556;2023-06-26T09:37:29;4.18;;;2.55;;
11911;SDS011;6016;41.928;25.556;2023-06-26T09:39:55;4.15;;;2.60;;
11911;SDS011;6016;41.928;25.556;2023-06-26T09:42:22;4.00;;;2.55;;
11911;SDS011;6016;41.928;25.556;2023-06-26T09:44:51;5.78;;;2.45;;
11911;SDS011;6016;41.928;25.556;2023-06-26T09:47:19;5.47;;;2.30;;
11911;SDS011;6016;41.928;25.556;2023-06-26T09:49:45;3.42;;;2.10;;
11911;SDS011;6016;41.928;25.556;2023-06-26T09:52:13;5.93;;;2.20;;
11911;SDS011;6016;41.928;25.556;2023-06-26T09:54:42;4.75;;;2.30;;
11911;SDS011;6016;41.928;25.556;2023-06-26T09:57:10;3.65;;;2.03;;
11911;SDS011;6016;41.928;25.556;2023-06-26T09:59:38;6.38;;;3.00;;
11911;SDS011;6016;41.928;25.556;2023-06-26T10:02:07;3.58;;;1.92;;
11911;SDS011;6016;41.928;25.556;2023-06-26T10:04:34;3.38;;;1.95;;
11911;SDS011;6016;41.928;25.556;2023-06-26T10:07:01;2.65;;;1.58;;
11911;SDS011;6016;41.928;25.556;2023-06-26T10:09:31;2.45;;;1.77;;
11911;SDS011;6016;41.928;25.556;2023-06-26T10:12:01;4.70;;;1.80;;
11911;SDS011;6016;41.928;25.556;2023-06-26T10:14:32;2.75;;;2.40;;
11911;SDS011;6016;41.928;25.556;2023-06-26T10:17:01;3.88;;;2.17;;
11911;SDS011;6016;41.928;25.556;2023-06-26T10:19:31;4.03;;;1.90;;
11911;SDS011;6016;41.928;25.556;2023-06-26T10:22:01;4.25;;;1.80;;
11911;SDS011;6016;41.928;25.556;2023-06-26T10:24:31;2.22;;;1.50;;
11911;SDS011;6016;41.928;25.556;2023-06-26T10:27:02;2.85;;;1.65;;
11911;SDS011;6016;41.928;25.556;2023-06-26T10:29:34;2.60;;;1.48;;
11911;SDS011;6016;41.928;25.556;2023-06-26T10:32:02;3.35;;;1.75;;
11911;SDS011;6016;41.928;25.556;2023-06-26T10:34:33;1.95;;;1.63;;
11911;SDS011;6016;41.928;25.556;2023-06-26T10:37:01;3.53;;;1.67;;
11911;SDS011;6016;41.928;25.556;2023-06-26T10:39:32;2.17;;;1.52;;
11911;SDS011;6016;41.928;25.556;2023-06-26T10:42:14;3.10;;;1.65;;
11911;SDS011;6016;41.928;25.556;2023-06-26T10:44:42;5.97;;;1.73;;
11911;SDS011;6016;41.928;25.556;2023-06-26T10:47:10;4.95;;;1.92;;
11911;SDS011;6016;41.928;25.556;2023-06-26T10:49:40;2.83;;;2.00;;
11911;SDS011;6016;41.928;25.556;2023-06-26T10:52:13;4.68;;;2.28;;
11911;SDS011;6016;41.928;25.556;2023-06-26T10:54:40;3.85;;;2.20;;
11911;SDS011;6016;41.928;25.556;2023-06-26T10:57:07;3.72;;;1.77;;
11911;SDS011;6016;41.928;25.556;2023-06-26T10:59:34;3.92;;;2.30;;
11911;SDS011;6016;41.928;25.556;2023-06-26T11:02:06;4.43;;;2.10;;
11911;SDS011;6016;41.928;25.556;2023-06-26T11:04:37;5.57;;;2.22;;
11911;SDS011;6016;41.928;25.556;2023-06-26T11:07:16;2.45;;;1.65;;
11911;SDS011;6016;41.928;25.556;2023-06-26T11:09:55;2.70;;;1.80;;
11911;SDS011;6016;41.928;25.556;2023-06-26T11:12:36;4.22;;;2.08;;
11911;SDS011;6016;41.928;25.556;2023-06-26T11:15:07;4.13;;;2.00;;
11911;SDS011;6016;41.928;25.556;2023-06-26T11:17:35;5.10;;;2.15;;
11911;SDS011;6016;41.928;25.556;2023-06-26T11:20:04;3.33;;;1.80;;
11911;SDS011;6016;41.928;25.556;2023-06-26T11:22:33;4.32;;;2.35;;
11911;SDS011;6016;41.928;25.556;2023-06-26T11:25:01;6.03;;;3.58;;
11911;SDS011;6016;41.928;25.556;2023-06-26T11:27:32;4.28;;;2.08;;
11911;SDS011;6016;41.928;25.556;2023-06-26T11:29:59;4.60;;;2.15;;
11911;SDS011;6016;41.928;25.556;2023-06-26T11:32:27;2.95;;;2.20;;
11911;SDS011;6016;41.928;25.556;2023-06-26T11:34:54;5.35;;;2.00;;
11911;SDS011;6016;41.928;25.556;2023-06-26T11:37:22;6.13;;;2.20;;
11911;SDS011;6016;41.928;25.556;2023-06-26T11:39:49;2.50;;;2.00;;
11911;SDS011;6016;41.928;25.556;2023-06-26T11:42:16;4.03;;;2.25;;
11911;SDS011;6016;41.928;25.556;2023-06-26T11:44:45;4.50;;;2.30;;
11911;SDS011;6016;41.928;25.556;2023-06-26T11:47:13;4.50;;;2.40;;
11911;SDS011;6016;41.928;25.556;2023-06-26T11:49:41;5.22;;;2.63;;
11911;SDS011;6016;41.928;25.556;2023-06-26T11:52:09;4.57;;;2.40;;
11911;SDS011;6016;41.928;25.556;2023-06-26T11:54:37;4.68;;;2.30;;
11911;SDS011;6016;41.928;25.556;2023-06-26T11:57:05;2.55;;;2.08;;
11911;SDS011;6016;41.928;25.556;2023-06-26T11:59:33;32.92;;;4.97;;
11911;SDS011;6016;41.928;25.556;2023-06-26T12:02:04;24.63;;;3.63;;
11911;SDS011;6016;41.928;25.556;2023-06-26T12:04:32;7.28;;;2.67;;
11911;SDS011;6016;41.928;25.556;2023-06-26T12:07:00;5.07;;;2.40;;
11911;SDS011;6016;41.928;25.556;2023-06-26T12:09:29;21.25;;;4.57;;
11911;SDS011;6016;41.928;25.556;2023-06-26T12:12:00;7.40;;;3.17;;
11911;SDS011;6016;41.928;25.556;2023-06-26T12:14:27;4.45;;;2.45;;
11911;SDS011;6016;41.928;25.556;2023-06-26T12:16:55;6.85;;;2.60;;
11911;SDS011;6016;41.928;25.556;2023-06-26T12:19:25;4.32;;;2.35;;
11911;SDS011;6016;41.928;25.556;2023-06-26T12:21:52;6.40;;;2.45;;
11911;SDS011;6016;41.928;25.556;2023-06-26T12:24:22;5.57;;;3.42;;
11911;SDS011;6016;41.928;25.556;2023-06-26T12:26:50;6.95;;;4.53;;
11911;SDS011;6016;41.928;25.556;2023-06-26T12:29:30;11.88;;;6.32;;
11911;SDS011;6016;41.928;25.556;2023-06-26T12:31:59;8.23;;;3.20;;
11911;SDS011;6016;41.928;25.556;2023-06-26T12:34:27;5.55;;;3.42;;
11911;SDS011;6016;41.928;25.556;2023-06-26T12:36:59;7.03;;;3.08;;
11911;SDS011;6016;41.928;25.556;2023-06-26T12:39:27;4.35;;;2.72;;
11911;SDS011;6016;41.928;25.556;2023-06-26T12:41:54;10.55;;;5.07;;
11911;SDS011;6016;41.928;25.556;2023-06-26T12:44:26;10.15;;;3.90;;
11911;SDS011;6016;41.928;25.556;2023-06-26T12:46:56;5.53;;;3.00;;
11911;SDS011;6016;41.928;25.556;2023-06-26T12:49:30;5.13;;;2.97;;
11911;SDS011;6016;41.928;25.556;2023-06-26T12:51:58;4.57;;;3.33;;
11911;SDS011;6016;41.928;25.556;2023-06-26T12:54:26;7.28;;;2.70;;
11911;SDS011;6016;41.928;25.556;2023-06-26T12:56:53;4.93;;;2.85;;
11911;SDS011;6016;41.928;25.556;2023-06-26T12:59:20;6.07;;;3.10;;
11911;SDS011;6016;41.928;25.556;2023-06-26T13:01:48;5.95;;;2.80;;
11911;SDS011;6016;41.928;25.556;2023-06-26T13:04:16;6.72;;;2.90;;
11911;SDS011;6016;41.928;25.556;2023-06-26T13:06:43;4.22;;;2.83;;
11911;SDS011;6016;41.928;25.556;2023-06-26T13:09:10;7.55;;;3.03;;
11911;SDS011;6016;41.928;25.556;2023-06-26T13:11:37;4.07;;;2.38;;
11911;SDS011;6016;41.928;25.556;2023-06-26T13:14:04;6.55;;;2.88;;
11911;SDS011;6016;41.928;25.556;2023-06-26T13:16:31;5.53;;;2.90;;
11911;SDS011;6016;41.928;25.556;2023-06-26T13:18:59;4.35;;;2.83;;
11911;SDS011;6016;41.928;25.556;2023-06-26T13:21:27;6.03;;;2.80;;
11911;SDS011;6016;41.928;25.556;2023-06-26T13:23:54;3.45;;;2.38;;
11911;SDS011;6016;41.928;25.556;2023-06-26T13:26:21;6.93;;;2.70;;
11911;SDS011;6016;41.928;25.556;2023-06-26T13:28:49;5.38;;;2.90;;
11911;SDS011;6016;41.928;25.556;2023-06-26T13:31:16;4.28;;;2.60;;
11911;SDS011;6016;41.928;25.556;2023-06-26T13:33:43;4.55;;;2.60;;
11911;SDS011;6016;41.928;25.556;2023-06-26T13:36:12;4.10;;;2.58;;
11911;SDS011;6016;41.928;25.556;2023-06-26T13:38:39;3.75;;;2.50;;
11911;SDS011;6016;41.928;25.556;2023-06-26T13:41:06;4.78;;;2.50;;
11911;SDS011;6016;41.928;25.556;2023-06-26T13:43:33;4.18;;;2.30;;
11911;SDS011;6016;41.928;25.556;2023-06-26T13:45:59;5.20;;;2.70;;
11911;SDS011;6016;41.928;25.556;2023-06-26T13:48:27;5.50;;;2.92;;
11911;SDS011;6016;41.928;25.556;2023-06-26T13:50:55;3.85;;;2.80;;
11911;SDS011;6016;41.928;25.556;2023-06-26T13:53:23;6.63;;;3.20;;
11911;SDS011;6016;41.928;25.556;2023-06-26T13:55:50;3.83;;;2.72;;
11911;SDS011;6016;41.928;25.556;2023-06-26T13:58:17;6.47;;;2.80;;
11911;SDS011;6016;41.928;25.556;2023-06-26T14:00:47;3.92;;;2.90;;
11911;SDS011;6016;41.928;25.556;2023-06-26T14:03:14;4.68;;;3.00;;
11911;SDS011;6016;41.928;25.556;2023-06-26T14:05:42;5.20;;;3.20;;
11911;SDS011;6016;41.928;25.556;2023-06-26T14:08:09;6.20;;;3.30;;
11911;SDS011;6016;41.928;25.556;2023-06-26T14:10:38;5.88;;;2.80;;
11911;SDS011;6016;41.928;25.556;2023-06-26T14:13:04;5.93;;;3.35;;
11911;SDS011;6016;41.928;25.556;2023-06-26T14:15:32;7.30;;;3.63;;
11911;SDS011;6016;41.928;25.556;2023-06-26T14:17:59;5.47;;;2.78;;
11911;SDS011;6016;41.928;25.556;2023-06-26T14:20:28;6.00;;;3.20;;
11911;SDS011;6016;41.928;25.556;2023-06-26T14:22:57;5.45;;;3.53;;
11911;SDS011;6016;41.928;25.556;2023-06-26T14:25:24;5.60;;;2.70;;
11911;SDS011;6016;41.928;25.556;2023-06-26T14:27:54;6.28;;;3.20;;
11911;SDS011;6016;41.928;25.556;2023-06-26T14:30:22;4.03;;;2.80;;
11911;SDS011;6016;41.928;25.556;2023-06-26T14:32:49;3.22;;;2.35;;
11911;SDS011;6016;41.928;25.556;2023-06-26T14:35:16;3.35;;;2.22;;
11911;SDS011;6016;41.928;25.556;2023-06-26T14:37:42;3.78;;;1.90;;
11911;SDS011;6016;41.928;25.556;2023-06-26T14:40:10;3.17;;;1.90;;
11911;SDS011;6016;41.928;25.556;2023-06-26T14:42:38;4.10;;;1.80;;
11911;SDS011;6016;41.928;25.556;2023-06-26T14:45:06;3.15;;;2.00;;
11911;SDS011;6016;41.928;25.556;2023-06-26T14:47:34;2.83;;;1.77;;